Marola — IBFL — position and weather

sailwx.info

Track history (hours):
 
Tides and Currents Weather Stations Pressure Air Temp Water Temp Dewpoint Dewpoint Depression Visibility Wind Speed Wind Dir Waves Ship Positions

Marola

Last reported at 2015-Jul-13 13:33 UTC. Time now 2015-Jul-31 15:27 UTC.
Position N 29°53' W 089°58'.
Warning: this ship's position is 18 days out of date.

Length 180 m; draft 7.1 m.

Type: Ship. MMSI: 247094900.

Date/timePositionNaut miles runAvg speedWind from/ knotsBaromVisibWave heightAir tempDewpointWater temp
2015-Jul-13 13:33N 29°53' W 089°58'6 5.9
2015-Jul-13 12:30N 29°57' W 090°04'8 9.0
2015-Jul-13 11:33N 29°57' W 090°13'  
2015-Jul-10 21:20N 29°55' W 090°05'5 6.7
2015-Jul-10 20:33N 29°56' W 089°59'7 5.4
2015-Jul-10 19:14N 29°49' W 090°00'39912.5
2015-Jul-09 11:25N 27°36' W 082°51'1213.2
2015-Jul-09 10:33N 27°38' W 082°38'1312.7
2015-Jul-09 09:33N 27°48' W 082°30'8 7.8
2015-Jul-09 08:33N 27°54' W 082°25'0 0.2
2015-Jul-09 07:31N 27°54' W 082°25'0 0.0
2015-Jul-09 06:34N 27°54' W 082°25'0 0.0
2015-Jul-09 05:31N 27°54' W 082°25'0 0.0
2015-Jul-09 04:31N 27°54' W 082°25'0 0.0
2015-Jul-09 03:31N 27°54' W 082°25'0 0.0
2015-Jul-09 02:34N 27°54' W 082°25'0 0.0
2015-Jul-09 01:31N 27°54' W 082°25'0 0.0
2015-Jul-09 00:34N 27°54' W 082°25'0 0.0
2015-Jul-08 23:31N 27°54' W 082°25'0 0.0
2015-Jul-08 22:31N 27°54' W 082°25'0 0.0
2015-Jul-08 21:34N 27°54' W 082°25'0 0.0
2015-Jul-08 20:34N 27°54' W 082°25'0 0.0
2015-Jul-08 19:34N 27°54' W 082°25'0 0.0
2015-Jul-08 18:31N 27°54' W 082°25'0 0.0
2015-Jul-08 17:31N 27°54' W 082°25'0 0.0
2015-Jul-08 16:31N 27°54' W 082°25'0 0.0
2015-Jul-08 15:31N 27°54' W 082°25'0 0.5
2015-Jul-08 14:33N 27°54' W 082°25'0 0.0
2015-Jul-08 13:31N 27°54' W 082°25'0 0.0
2015-Jul-08 12:34N 27°54' W 082°25'0 0.0
2015-Jul-08 11:34N 27°54' W 082°25'0 0.0
2015-Jul-08 10:34N 27°54' W 082°25'0 0.0
2015-Jul-08 09:34N 27°54' W 082°25'0 0.0
2015-Jul-08 08:34N 27°54' W 082°25'0 0.0
2015-Jul-08 07:31N 27°54' W 082°25'0 0.0
2015-Jul-08 06:34N 27°54' W 082°25'0 0.0
2015-Jul-08 05:27N 27°54' W 082°25'0 0.0
2015-Jul-08 04:34N 27°54' W 082°25'0 0.0
2015-Jul-08 03:34N 27°54' W 082°25'0 0.0
2015-Jul-08 02:31N 27°54' W 082°25'0 0.0
2015-Jul-08 01:34N 27°54' W 082°25'0 0.0
2015-Jul-08 00:31N 27°54' W 082°25'0 0.0
2015-Jul-07 23:34N 27°54' W 082°25'0 0.0
2015-Jul-07 22:31N 27°54' W 082°25'0 0.0
2015-Jul-07 21:28N 27°54' W 082°25'0 0.0
2015-Jul-07 20:34N 27°54' W 082°25'0 0.0
2015-Jul-07 19:31N 27°54' W 082°25'0 0.0
2015-Jul-07 18:31N 27°54' W 082°25'0 0.0
2015-Jul-07 17:31N 27°54' W 082°25'0 0.0
2015-Jul-07 16:34N 27°54' W 082°25'0 0.0
2015-Jul-07 15:34N 27°54' W 082°25'0 0.0
2015-Jul-07 14:34N 27°54' W 082°25'0 0.0
2015-Jul-07 13:30N 27°54' W 082°25'1 1.3
2015-Jul-07 12:33N 27°53' W 082°26'1010.2
2015-Jul-07 11:34N 27°44' W 082°32'1313.0
2015-Jul-07 10:33N 27°36' W 082°44'5711.0
2015-Jul-07 05:21N 26°42' W 083°05'2815.5
2015-Jul-07 03:33N 26°15' W 083°07'  
Track history (hours):
 
Tides and Currents Weather Stations Pressure Air Temp Water Temp Dewpoint Dewpoint Depression Visibility Wind Speed Wind Dir Waves Ship Positions

Marola

Last reported at 2015-Jul-13 13:33 UTC. Time now 2015-Jul-31 15:27 UTC.
Position N 29°53' W 089°58'.
Warning: this ship's position is 18 days out of date.

Length 180 m; draft 7.1 m.

Type: Ship. MMSI: 247094900.

Date/timePositionNaut miles runAvg speedWind from/ knotsBaromVisibWave heightAir tempDewpointWater temp
2015-Jul-13 13:33N 29°53' W 089°58'6 5.9
2015-Jul-13 12:30N 29°57' W 090°04'8 9.0
2015-Jul-13 11:33N 29°57' W 090°13'  
2015-Jul-10 21:20N 29°55' W 090°05'5 6.7
2015-Jul-10 20:33N 29°56' W 089°59'7 5.4
2015-Jul-10 19:14N 29°49' W 090°00'39912.5
2015-Jul-09 11:25N 27°36' W 082°51'1213.2
2015-Jul-09 10:33N 27°38' W 082°38'1312.7
2015-Jul-09 09:33N 27°48' W 082°30'8 7.8
2015-Jul-09 08:33N 27°54' W 082°25'0 0.2
2015-Jul-09 07:31N 27°54' W 082°25'0 0.0
2015-Jul-09 06:34N 27°54' W 082°25'0 0.0
2015-Jul-09 05:31N 27°54' W 082°25'0 0.0
2015-Jul-09 04:31N 27°54' W 082°25'0 0.0
2015-Jul-09 03:31N 27°54' W 082°25'0 0.0
2015-Jul-09 02:34N 27°54' W 082°25'0 0.0
2015-Jul-09 01:31N 27°54' W 082°25'0 0.0
2015-Jul-09 00:34N 27°54' W 082°25'0 0.0
2015-Jul-08 23:31N 27°54' W 082°25'0 0.0
2015-Jul-08 22:31N 27°54' W 082°25'0 0.0
2015-Jul-08 21:34N 27°54' W 082°25'0 0.0
2015-Jul-08 20:34N 27°54' W 082°25'0 0.0
2015-Jul-08 19:34N 27°54' W 082°25'0 0.0
2015-Jul-08 18:31N 27°54' W 082°25'0 0.0
2015-Jul-08 17:31N 27°54' W 082°25'0 0.0
2015-Jul-08 16:31N 27°54' W 082°25'0 0.0
2015-Jul-08 15:31N 27°54' W 082°25'0 0.5
2015-Jul-08 14:33N 27°54' W 082°25'0 0.0
2015-Jul-08 13:31N 27°54' W 082°25'0 0.0
2015-Jul-08 12:34N 27°54' W 082°25'0 0.0
2015-Jul-08 11:34N 27°54' W 082°25'0 0.0
2015-Jul-08 10:34N 27°54' W 082°25'0 0.0
2015-Jul-08 09:34N 27°54' W 082°25'0 0.0
2015-Jul-08 08:34N 27°54' W 082°25'0 0.0
2015-Jul-08 07:31N 27°54' W 082°25'0 0.0
2015-Jul-08 06:34N 27°54' W 082°25'0 0.0
2015-Jul-08 05:27N 27°54' W 082°25'0 0.0
2015-Jul-08 04:34N 27°54' W 082°25'0 0.0
2015-Jul-08 03:34N 27°54' W 082°25'0 0.0
2015-Jul-08 02:31N 27°54' W 082°25'0 0.0
2015-Jul-08 01:34N 27°54' W 082°25'0 0.0
2015-Jul-08 00:31N 27°54' W 082°25'0 0.0
2015-Jul-07 23:34N 27°54' W 082°25'0 0.0
2015-Jul-07 22:31N 27°54' W 082°25'0 0.0
2015-Jul-07 21:28N 27°54' W 082°25'0 0.0
2015-Jul-07 20:34N 27°54' W 082°25'0 0.0
2015-Jul-07 19:31N 27°54' W 082°25'0 0.0
2015-Jul-07 18:31N 27°54' W 082°25'0 0.0
2015-Jul-07 17:31N 27°54' W 082°25'0 0.0
2015-Jul-07 16:34N 27°54' W 082°25'0 0.0
2015-Jul-07 15:34N 27°54' W 082°25'0 0.0
2015-Jul-07 14:34N 27°54' W 082°25'0 0.0
2015-Jul-07 13:30N 27°54' W 082°25'1 1.3
2015-Jul-07 12:33N 27°53' W 082°26'1010.2
2015-Jul-07 11:34N 27°44' W 082°32'1313.0
2015-Jul-07 10:33N 27°36' W 082°44'5711.0
2015-Jul-07 05:21N 26°42' W 083°05'2815.5
2015-Jul-07 03:33N 26°15' W 083°07'  

Dump ship's entire track history